Página principal
METAR-TAF:

METAR-TAF

Aeroportos :

Northway, Alasca, Estados Unidos

latitude: 62-57-40N, longitude: 141-55-44W, altura: 523 m

Observação actual do tempo

O boletim foi feito há 45 minutos, às 16:53 UTC
Vento calmo
Temperatura 17°C
Humidade 59%
Pressão 1019 hPa
Visibilidade: 16.1 km
Céu limpo

METAR: PAOR 151653Z 00000KT 10SM CLR 17/09 A3010 RMK AO2 SLP193 T01670089 PNO $

Hora: 09:38 (17:38 UTC)

Previsão

O boletim foi feito há 5 horas e 58 minutos, às 11:40 UTC
Previsão válida de 15 às 12 UTC a 16 às 12 UTC
Vento 6 kt de noroeste
Visibilidade: 10 km
Nuvens dispersasa uma altura de 12000 ft
aguaceiros nas vizinhanças,

TAF: PAOR 151140Z 1512/1612 31006KT P6SM VCSH SCT120

Observações e previsões do tempo de mais de 4000 aeroportos (mensagens METAR e TAF).

As estações disponíveis são os pontos amarelos e vermelhos sobre o mapa.

Mova o rato sobre o mapa para ver o nome da estação.

Depois clique no ponto para visualizar as observações e previsões meteorológicas.

Para alterar o mapa : clique nos botões verdes com uma cruz preta para aumentar o zoom; no botão verde com uma pitada de zoom; ou nas setas verdes para mapas adjacentes.


METAR-TAF: